<?xml version="1.0" encoding="UTF-8" standalone="no" ?>
<gpx xmlns="http://www.topografix.com/GPX/1/1" xmlns:xsi="http://www.w3.org/2001/XMLSchema-instance" xsi:schemaLocation="http://www.topografix.com/GPX/1/1 http://www.topografix.com/GPX/1/1/gpx.xsd" version="1.1" creator="VisuGPX - https://www.visugpx.com">
  <metadata>
    <name>Faugères - Terrus</name>
    <desc><![CDATA[De hameau en pont autour de Payzac un très bel itinéraire mais exigeant 
]]></desc>
  </metadata>
  <wpt lat="44.47064" lon="4.12958">
    <ele>451</ele>
    <name><![CDATA[Hameau de Pas à Brès]]></name>
  </wpt>
  <wpt lat="44.47338" lon="4.12786">
    <ele>486</ele>
    <name><![CDATA[Virage en épingle]]></name>
  </wpt>
  <wpt lat="44.47759" lon="4.12138">
    <ele>589</ele>
    <name><![CDATA[Piste forestière]]></name>
  </wpt>
  <wpt lat="44.48013" lon="4.10965">
    <ele>464</ele>
    <name><![CDATA[Termes]]></name>
  </wpt>
  <wpt lat="44.48817" lon="4.10567">
    <ele>603</ele>
    <name><![CDATA[Saint-Jean de Pourcharesse]]></name>
  </wpt>
  <wpt lat="44.49007" lon="4.10013">
    <ele>636</ele>
    <name><![CDATA[Chemin à gauche]]></name>
  </wpt>
  <wpt lat="44.49417" lon="4.09032">
    <ele>649</ele>
    <name><![CDATA[Dépoudent]]></name>
  </wpt>
  <wpt lat="44.48762" lon="4.09159">
    <ele>558</ele>
    <name><![CDATA[Terrus]]></name>
  </wpt>
  <wpt lat="44.48674" lon="4.0941">
    <ele>473</ele>
    <name><![CDATA[Jonction D350]]></name>
  </wpt>
  <wpt lat="44.48661" lon="4.09573">
    <ele>476</ele>
    <name><![CDATA[Chemin à droite]]></name>
  </wpt>
  <wpt lat="44.48342" lon="4.09496">
    <ele>480</ele>
    <name><![CDATA[Jonction D350]]></name>
  </wpt>
  <wpt lat="44.4823" lon="4.09576">
    <ele>476</ele>
    <name><![CDATA[Sentier à gauche]]></name>
  </wpt>
  <wpt lat="44.48203" lon="4.10112">
    <ele>399</ele>
    <name><![CDATA[Piste à droite]]></name>
  </wpt>
  <wpt lat="44.47846" lon="4.10555">
    <ele>365</ele>
    <name><![CDATA[Pont de Fra]]></name>
  </wpt>
  <wpt lat="44.47986" lon="4.11265">
    <ele>475</ele>
    <name><![CDATA[Le Serre]]></name>
  </wpt>
  <wpt lat="44.46852" lon="4.12374">
    <ele>436</ele>
    <name><![CDATA[Gounenche]]></name>
  </wpt>
  <wpt lat="44.47065" lon="4.1296">
    <ele>451</ele>
    <name><![CDATA[Hameau de Pas à Brès ]]></name>
  </wpt>
  <trk>
    <name><![CDATA[De hameau en pont autour de Payzac]]></name>
    <trkseg>
      <trkpt lat="44.47064" lon="4.12958">
        <ele>451</ele>
        <time>2020-02-05T10:07:52+01:00</time>
      </trkpt>
      <trkpt lat="44.4709" lon="4.12876">
        <ele>455</ele>
        <time>2020-02-05T10:07:57+01:00</time>
      </trkpt>
      <trkpt lat="44.47107" lon="4.12848">
        <ele>454</ele>
        <time>2020-02-05T10:08:02+01:00</time>
      </trkpt>
      <trkpt lat="44.47111" lon="4.12834">
        <ele>454</ele>
        <time>2020-02-05T10:08:07+01:00</time>
      </trkpt>
      <trkpt lat="44.4712" lon="4.12824">
        <ele>456</ele>
        <time>2020-02-05T10:08:12+01:00</time>
      </trkpt>
      <trkpt lat="44.47144" lon="4.12799">
        <ele>462</ele>
        <time>2020-02-05T10:08:17+01:00</time>
      </trkpt>
      <trkpt lat="44.47192" lon="4.12758">
        <ele>480</ele>
        <time>2020-02-05T10:08:22+01:00</time>
      </trkpt>
      <trkpt lat="44.47234" lon="4.12761">
        <ele>488</ele>
        <time>2020-02-05T10:08:27+01:00</time>
      </trkpt>
      <trkpt lat="44.47274" lon="4.1278">
        <ele>486</ele>
        <time>2020-02-05T10:08:32+01:00</time>
      </trkpt>
      <trkpt lat="44.47306" lon="4.12787">
        <ele>485</ele>
        <time>2020-02-05T10:08:37+01:00</time>
      </trkpt>
      <trkpt lat="44.47338" lon="4.12786">
        <ele>486</ele>
        <time>2020-02-05T10:08:42+01:00</time>
      </trkpt>
      <trkpt lat="44.47346" lon="4.12776">
        <ele>487</ele>
        <time>2020-02-05T10:08:47+01:00</time>
      </trkpt>
      <trkpt lat="44.47354" lon="4.12775">
        <ele>485</ele>
        <time>2020-02-05T10:08:52+01:00</time>
      </trkpt>
      <trkpt lat="44.47363" lon="4.12722">
        <ele>500</ele>
        <time>2020-02-05T10:08:57+01:00</time>
      </trkpt>
      <trkpt lat="44.47385" lon="4.12663">
        <ele>512</ele>
        <time>2020-02-05T10:09:02+01:00</time>
      </trkpt>
      <trkpt lat="44.47409" lon="4.12652">
        <ele>509</ele>
        <time>2020-02-05T10:09:07+01:00</time>
      </trkpt>
      <trkpt lat="44.47432" lon="4.12638">
        <ele>507</ele>
        <time>2020-02-05T10:09:12+01:00</time>
      </trkpt>
      <trkpt lat="44.47462" lon="4.12582">
        <ele>521</ele>
        <time>2020-02-05T10:09:17+01:00</time>
      </trkpt>
      <trkpt lat="44.4752" lon="4.12533">
        <ele>525</ele>
        <time>2020-02-05T10:09:22+01:00</time>
      </trkpt>
      <trkpt lat="44.47563" lon="4.1247">
        <ele>540</ele>
        <time>2020-02-05T10:09:27+01:00</time>
      </trkpt>
      <trkpt lat="44.47604" lon="4.12401">
        <ele>555</ele>
        <time>2020-02-05T10:09:32+01:00</time>
      </trkpt>
      <trkpt lat="44.47639" lon="4.1234">
        <ele>562</ele>
        <time>2020-02-05T10:09:37+01:00</time>
      </trkpt>
      <trkpt lat="44.47677" lon="4.12282">
        <ele>571</ele>
        <time>2020-02-05T10:09:42+01:00</time>
      </trkpt>
      <trkpt lat="44.47711" lon="4.12261">
        <ele>576</ele>
        <time>2020-02-05T10:09:47+01:00</time>
      </trkpt>
      <trkpt lat="44.47753" lon="4.12247">
        <ele>577</ele>
        <time>2020-02-05T10:09:52+01:00</time>
      </trkpt>
      <trkpt lat="44.47802" lon="4.1217">
        <ele>593</ele>
        <time>2020-02-05T10:09:57+01:00</time>
      </trkpt>
      <trkpt lat="44.47733" lon="4.12178">
        <ele>592</ele>
        <time>2020-02-05T10:10:02+01:00</time>
      </trkpt>
      <trkpt lat="44.4771" lon="4.12164">
        <ele>594</ele>
        <time>2020-02-05T10:10:07+01:00</time>
      </trkpt>
      <trkpt lat="44.47759" lon="4.12138">
        <ele>589</ele>
        <time>2020-02-05T10:10:12+01:00</time>
      </trkpt>
      <trkpt lat="44.4776" lon="4.12117">
        <ele>586</ele>
        <time>2020-02-05T10:10:17+01:00</time>
      </trkpt>
      <trkpt lat="44.47765" lon="4.12094">
        <ele>583</ele>
        <time>2020-02-05T10:10:22+01:00</time>
      </trkpt>
      <trkpt lat="44.47778" lon="4.12082">
        <ele>584</ele>
        <time>2020-02-05T10:10:27+01:00</time>
      </trkpt>
      <trkpt lat="44.47803" lon="4.12066">
        <ele>586</ele>
        <time>2020-02-05T10:10:32+01:00</time>
      </trkpt>
      <trkpt lat="44.47817" lon="4.12062">
        <ele>588</ele>
        <time>2020-02-05T10:10:37+01:00</time>
      </trkpt>
      <trkpt lat="44.47832" lon="4.12024">
        <ele>585</ele>
        <time>2020-02-05T10:10:42+01:00</time>
      </trkpt>
      <trkpt lat="44.47869" lon="4.11904">
        <ele>564</ele>
        <time>2020-02-05T10:10:47+01:00</time>
      </trkpt>
      <trkpt lat="44.47979" lon="4.11781">
        <ele>558</ele>
        <time>2020-02-05T10:10:52+01:00</time>
      </trkpt>
      <trkpt lat="44.47999" lon="4.11743">
        <ele>557</ele>
        <time>2020-02-05T10:10:57+01:00</time>
      </trkpt>
      <trkpt lat="44.4799" lon="4.11683">
        <ele>544</ele>
        <time>2020-02-05T10:11:02+01:00</time>
      </trkpt>
      <trkpt lat="44.47993" lon="4.1166">
        <ele>542</ele>
        <time>2020-02-05T10:11:07+01:00</time>
      </trkpt>
      <trkpt lat="44.48" lon="4.11643">
        <ele>544</ele>
        <time>2020-02-05T10:11:12+01:00</time>
      </trkpt>
      <trkpt lat="44.48017" lon="4.11609">
        <ele>547</ele>
        <time>2020-02-05T10:11:17+01:00</time>
      </trkpt>
      <trkpt lat="44.48034" lon="4.11583">
        <ele>551</ele>
        <time>2020-02-05T10:11:22+01:00</time>
      </trkpt>
      <trkpt lat="44.48034" lon="4.11569">
        <ele>551</ele>
        <time>2020-02-05T10:11:27+01:00</time>
      </trkpt>
      <trkpt lat="44.48034" lon="4.11558">
        <ele>550</ele>
        <time>2020-02-05T10:11:32+01:00</time>
      </trkpt>
      <trkpt lat="44.48028" lon="4.11549">
        <ele>548</ele>
        <time>2020-02-05T10:11:37+01:00</time>
      </trkpt>
      <trkpt lat="44.48012" lon="4.11523">
        <ele>541</ele>
        <time>2020-02-05T10:11:42+01:00</time>
      </trkpt>
      <trkpt lat="44.47998" lon="4.11494">
        <ele>535</ele>
        <time>2020-02-05T10:11:47+01:00</time>
      </trkpt>
      <trkpt lat="44.48004" lon="4.11472">
        <ele>533</ele>
        <time>2020-02-05T10:11:52+01:00</time>
      </trkpt>
      <trkpt lat="44.48025" lon="4.11454">
        <ele>538</ele>
        <time>2020-02-05T10:11:57+01:00</time>
      </trkpt>
      <trkpt lat="44.48044" lon="4.11433">
        <ele>541</ele>
        <time>2020-02-05T10:12:02+01:00</time>
      </trkpt>
      <trkpt lat="44.4807" lon="4.11395">
        <ele>542</ele>
        <time>2020-02-05T10:12:07+01:00</time>
      </trkpt>
      <trkpt lat="44.48091" lon="4.11364">
        <ele>541</ele>
        <time>2020-02-05T10:12:12+01:00</time>
      </trkpt>
      <trkpt lat="44.481" lon="4.11331">
        <ele>537</ele>
        <time>2020-02-05T10:12:17+01:00</time>
      </trkpt>
      <trkpt lat="44.48111" lon="4.11292">
        <ele>534</ele>
        <time>2020-02-05T10:12:22+01:00</time>
      </trkpt>
      <trkpt lat="44.48116" lon="4.11268">
        <ele>532</ele>
        <time>2020-02-05T10:12:27+01:00</time>
      </trkpt>
      <trkpt lat="44.48118" lon="4.1124">
        <ele>527</ele>
        <time>2020-02-05T10:12:32+01:00</time>
      </trkpt>
      <trkpt lat="44.48117" lon="4.11211">
        <ele>522</ele>
        <time>2020-02-05T10:12:37+01:00</time>
      </trkpt>
      <trkpt lat="44.48107" lon="4.11159">
        <ele>509</ele>
        <time>2020-02-05T10:12:42+01:00</time>
      </trkpt>
      <trkpt lat="44.48102" lon="4.11137">
        <ele>505</ele>
        <time>2020-02-05T10:12:47+01:00</time>
      </trkpt>
      <trkpt lat="44.48093" lon="4.1111">
        <ele>499</ele>
        <time>2020-02-05T10:12:52+01:00</time>
      </trkpt>
      <trkpt lat="44.48077" lon="4.11039">
        <ele>482</ele>
        <time>2020-02-05T10:12:57+01:00</time>
      </trkpt>
      <trkpt lat="44.48052" lon="4.11013">
        <ele>474</ele>
        <time>2020-02-05T10:13:02+01:00</time>
      </trkpt>
      <trkpt lat="44.48037" lon="4.10987">
        <ele>468</ele>
        <time>2020-02-05T10:13:07+01:00</time>
      </trkpt>
      <trkpt lat="44.48013" lon="4.10965">
        <ele>464</ele>
        <time>2020-02-05T10:13:12+01:00</time>
      </trkpt>
      <trkpt lat="44.48046" lon="4.10967">
        <ele>463</ele>
        <time>2020-02-05T10:13:17+01:00</time>
      </trkpt>
      <trkpt lat="44.48071" lon="4.10979">
        <ele>466</ele>
        <time>2020-02-05T10:13:22+01:00</time>
      </trkpt>
      <trkpt lat="44.48089" lon="4.10984">
        <ele>468</ele>
        <time>2020-02-05T10:13:27+01:00</time>
      </trkpt>
      <trkpt lat="44.48119" lon="4.10981">
        <ele>469</ele>
        <time>2020-02-05T10:13:32+01:00</time>
      </trkpt>
      <trkpt lat="44.48152" lon="4.10957">
        <ele>462</ele>
        <time>2020-02-05T10:13:37+01:00</time>
      </trkpt>
      <trkpt lat="44.48174" lon="4.10939">
        <ele>454</ele>
        <time>2020-02-05T10:13:42+01:00</time>
      </trkpt>
      <trkpt lat="44.48206" lon="4.1093">
        <ele>452</ele>
        <time>2020-02-05T10:13:47+01:00</time>
      </trkpt>
      <trkpt lat="44.48233" lon="4.10936">
        <ele>456</ele>
        <time>2020-02-05T10:13:52+01:00</time>
      </trkpt>
      <trkpt lat="44.48255" lon="4.10933">
        <ele>455</ele>
        <time>2020-02-05T10:13:57+01:00</time>
      </trkpt>
      <trkpt lat="44.48277" lon="4.10937">
        <ele>454</ele>
        <time>2020-02-05T10:14:02+01:00</time>
      </trkpt>
      <trkpt lat="44.48309" lon="4.10961">
        <ele>460</ele>
        <time>2020-02-05T10:14:07+01:00</time>
      </trkpt>
      <trkpt lat="44.48335" lon="4.10965">
        <ele>458</ele>
        <time>2020-02-05T10:14:12+01:00</time>
      </trkpt>
      <trkpt lat="44.48352" lon="4.10967">
        <ele>455</ele>
        <time>2020-02-05T10:14:17+01:00</time>
      </trkpt>
      <trkpt lat="44.4837" lon="4.10981">
        <ele>455</ele>
        <time>2020-02-05T10:14:22+01:00</time>
      </trkpt>
      <trkpt lat="44.48404" lon="4.10997">
        <ele>450</ele>
        <time>2020-02-05T10:14:27+01:00</time>
      </trkpt>
      <trkpt lat="44.48411" lon="4.11016">
        <ele>453</ele>
        <time>2020-02-05T10:14:32+01:00</time>
      </trkpt>
      <trkpt lat="44.48414" lon="4.11043">
        <ele>460</ele>
        <time>2020-02-05T10:14:37+01:00</time>
      </trkpt>
      <trkpt lat="44.48421" lon="4.11062">
        <ele>464</ele>
        <time>2020-02-05T10:14:42+01:00</time>
      </trkpt>
      <trkpt lat="44.48434" lon="4.11071">
        <ele>463</ele>
        <time>2020-02-05T10:14:47+01:00</time>
      </trkpt>
      <trkpt lat="44.48454" lon="4.11078">
        <ele>459</ele>
        <time>2020-02-05T10:14:52+01:00</time>
      </trkpt>
      <trkpt lat="44.48463" lon="4.11104">
        <ele>460</ele>
        <time>2020-02-05T10:14:57+01:00</time>
      </trkpt>
      <trkpt lat="44.4848" lon="4.11139">
        <ele>459</ele>
        <time>2020-02-05T10:15:02+01:00</time>
      </trkpt>
      <trkpt lat="44.48493" lon="4.11151">
        <ele>454</ele>
        <time>2020-02-05T10:15:07+01:00</time>
      </trkpt>
      <trkpt lat="44.48506" lon="4.11174">
        <ele>454</ele>
        <time>2020-02-05T10:15:12+01:00</time>
      </trkpt>
      <trkpt lat="44.4852" lon="4.11191">
        <ele>457</ele>
        <time>2020-02-05T10:15:17+01:00</time>
      </trkpt>
      <trkpt lat="44.48526" lon="4.11187">
        <ele>456</ele>
        <time>2020-02-05T10:15:22+01:00</time>
      </trkpt>
      <trkpt lat="44.48531" lon="4.11175">
        <ele>455</ele>
        <time>2020-02-05T10:15:27+01:00</time>
      </trkpt>
      <trkpt lat="44.48552" lon="4.11155">
        <ele>457</ele>
        <time>2020-02-05T10:15:32+01:00</time>
      </trkpt>
      <trkpt lat="44.48551" lon="4.11133">
        <ele>458</ele>
        <time>2020-02-05T10:15:37+01:00</time>
      </trkpt>
      <trkpt lat="44.48546" lon="4.11108">
        <ele>458</ele>
        <time>2020-02-05T10:15:42+01:00</time>
      </trkpt>
      <trkpt lat="44.48544" lon="4.11083">
        <ele>459</ele>
        <time>2020-02-05T10:15:47+01:00</time>
      </trkpt>
      <trkpt lat="44.48544" lon="4.11055">
        <ele>461</ele>
        <time>2020-02-05T10:15:52+01:00</time>
      </trkpt>
      <trkpt lat="44.48538" lon="4.11011">
        <ele>462</ele>
        <time>2020-02-05T10:15:57+01:00</time>
      </trkpt>
      <trkpt lat="44.48547" lon="4.11007">
        <ele>466</ele>
        <time>2020-02-05T10:16:02+01:00</time>
      </trkpt>
      <trkpt lat="44.48557" lon="4.11004">
        <ele>470</ele>
        <time>2020-02-05T10:16:07+01:00</time>
      </trkpt>
      <trkpt lat="44.48562" lon="4.1098">
        <ele>474</ele>
        <time>2020-02-05T10:16:12+01:00</time>
      </trkpt>
      <trkpt lat="44.48579" lon="4.10978">
        <ele>481</ele>
        <time>2020-02-05T10:16:17+01:00</time>
      </trkpt>
      <trkpt lat="44.48604" lon="4.10975">
        <ele>492</ele>
        <time>2020-02-05T10:16:22+01:00</time>
      </trkpt>
      <trkpt lat="44.48627" lon="4.10957">
        <ele>502</ele>
        <time>2020-02-05T10:16:27+01:00</time>
      </trkpt>
      <trkpt lat="44.4864" lon="4.1091">
        <ele>511</ele>
        <time>2020-02-05T10:16:32+01:00</time>
      </trkpt>
      <trkpt lat="44.48651" lon="4.10857">
        <ele>520</ele>
        <time>2020-02-05T10:16:37+01:00</time>
      </trkpt>
      <trkpt lat="44.4866" lon="4.10836">
        <ele>525</ele>
        <time>2020-02-05T10:16:42+01:00</time>
      </trkpt>
      <trkpt lat="44.48671" lon="4.10819">
        <ele>531</ele>
        <time>2020-02-05T10:16:47+01:00</time>
      </trkpt>
      <trkpt lat="44.48683" lon="4.10823">
        <ele>535</ele>
        <time>2020-02-05T10:16:52+01:00</time>
      </trkpt>
      <trkpt lat="44.48694" lon="4.10837">
        <ele>538</ele>
        <time>2020-02-05T10:16:57+01:00</time>
      </trkpt>
      <trkpt lat="44.48713" lon="4.10861">
        <ele>541</ele>
        <time>2020-02-05T10:17:02+01:00</time>
      </trkpt>
      <trkpt lat="44.48732" lon="4.10877">
        <ele>544</ele>
        <time>2020-02-05T10:17:07+01:00</time>
      </trkpt>
      <trkpt lat="44.48739" lon="4.10848">
        <ele>551</ele>
        <time>2020-02-05T10:17:12+01:00</time>
      </trkpt>
      <trkpt lat="44.48742" lon="4.10828">
        <ele>556</ele>
        <time>2020-02-05T10:17:17+01:00</time>
      </trkpt>
      <trkpt lat="44.48751" lon="4.10809">
        <ele>560</ele>
        <time>2020-02-05T10:17:22+01:00</time>
      </trkpt>
      <trkpt lat="44.48755" lon="4.10807">
        <ele>561</ele>
        <time>2020-02-05T10:17:27+01:00</time>
      </trkpt>
      <trkpt lat="44.48756" lon="4.10801">
        <ele>562</ele>
        <time>2020-02-05T10:17:32+01:00</time>
      </trkpt>
      <trkpt lat="44.48764" lon="4.10792">
        <ele>564</ele>
        <time>2020-02-05T10:17:37+01:00</time>
      </trkpt>
      <trkpt lat="44.48764" lon="4.10772">
        <ele>567</ele>
        <time>2020-02-05T10:17:42+01:00</time>
      </trkpt>
      <trkpt lat="44.48761" lon="4.10757">
        <ele>568</ele>
        <time>2020-02-05T10:17:47+01:00</time>
      </trkpt>
      <trkpt lat="44.48754" lon="4.10733">
        <ele>567</ele>
        <time>2020-02-05T10:17:52+01:00</time>
      </trkpt>
      <trkpt lat="44.48765" lon="4.10721">
        <ele>571</ele>
        <time>2020-02-05T10:17:57+01:00</time>
      </trkpt>
      <trkpt lat="44.48785" lon="4.1069">
        <ele>579</ele>
        <time>2020-02-05T10:18:02+01:00</time>
      </trkpt>
      <trkpt lat="44.48801" lon="4.10651">
        <ele>588</ele>
        <time>2020-02-05T10:18:07+01:00</time>
      </trkpt>
      <trkpt lat="44.48806" lon="4.10617">
        <ele>593</ele>
        <time>2020-02-05T10:18:12+01:00</time>
      </trkpt>
      <trkpt lat="44.48804" lon="4.10599">
        <ele>594</ele>
        <time>2020-02-05T10:18:17+01:00</time>
      </trkpt>
      <trkpt lat="44.48799" lon="4.10582">
        <ele>594</ele>
        <time>2020-02-05T10:18:22+01:00</time>
      </trkpt>
      <trkpt lat="44.48791" lon="4.10563">
        <ele>594</ele>
        <time>2020-02-05T10:18:27+01:00</time>
      </trkpt>
      <trkpt lat="44.48793" lon="4.10546">
        <ele>597</ele>
        <time>2020-02-05T10:18:32+01:00</time>
      </trkpt>
      <trkpt lat="44.48807" lon="4.10552">
        <ele>602</ele>
        <time>2020-02-05T10:18:37+01:00</time>
      </trkpt>
      <trkpt lat="44.48817" lon="4.10567">
        <ele>603</ele>
        <time>2020-02-05T10:18:42+01:00</time>
      </trkpt>
      <trkpt lat="44.48799" lon="4.10497">
        <ele>606</ele>
        <time>2020-02-05T10:18:47+01:00</time>
      </trkpt>
      <trkpt lat="44.48788" lon="4.10447">
        <ele>606</ele>
        <time>2020-02-05T10:18:52+01:00</time>
      </trkpt>
      <trkpt lat="44.48786" lon="4.10398">
        <ele>606</ele>
        <time>2020-02-05T10:18:57+01:00</time>
      </trkpt>
      <trkpt lat="44.48789" lon="4.10354">
        <ele>606</ele>
        <time>2020-02-05T10:19:02+01:00</time>
      </trkpt>
      <trkpt lat="44.48813" lon="4.10323">
        <ele>611</ele>
        <time>2020-02-05T10:19:07+01:00</time>
      </trkpt>
      <trkpt lat="44.48836" lon="4.10293">
        <ele>617</ele>
        <time>2020-02-05T10:19:12+01:00</time>
      </trkpt>
      <trkpt lat="44.48836" lon="4.10219">
        <ele>615</ele>
        <time>2020-02-05T10:19:17+01:00</time>
      </trkpt>
      <trkpt lat="44.48854" lon="4.10139">
        <ele>622</ele>
        <time>2020-02-05T10:19:22+01:00</time>
      </trkpt>
      <trkpt lat="44.48854" lon="4.10054">
        <ele>618</ele>
        <time>2020-02-05T10:19:27+01:00</time>
      </trkpt>
      <trkpt lat="44.48877" lon="4.09975">
        <ele>614</ele>
        <time>2020-02-05T10:19:32+01:00</time>
      </trkpt>
      <trkpt lat="44.48901" lon="4.09939">
        <ele>612</ele>
        <time>2020-02-05T10:19:37+01:00</time>
      </trkpt>
      <trkpt lat="44.48919" lon="4.09941">
        <ele>615</ele>
        <time>2020-02-05T10:19:42+01:00</time>
      </trkpt>
      <trkpt lat="44.48942" lon="4.0999">
        <ele>626</ele>
        <time>2020-02-05T10:19:47+01:00</time>
      </trkpt>
      <trkpt lat="44.48956" lon="4.10001">
        <ele>629</ele>
        <time>2020-02-05T10:19:52+01:00</time>
      </trkpt>
      <trkpt lat="44.48973" lon="4.10006">
        <ele>631</ele>
        <time>2020-02-05T10:19:57+01:00</time>
      </trkpt>
      <trkpt lat="44.48988" lon="4.10011">
        <ele>634</ele>
        <time>2020-02-05T10:20:02+01:00</time>
      </trkpt>
      <trkpt lat="44.49007" lon="4.10013">
        <ele>636</ele>
        <time>2020-02-05T10:20:07+01:00</time>
      </trkpt>
      <trkpt lat="44.49027" lon="4.09991">
        <ele>631</ele>
        <time>2020-02-05T10:20:12+01:00</time>
      </trkpt>
      <trkpt lat="44.49041" lon="4.09968">
        <ele>623</ele>
        <time>2020-02-05T10:20:17+01:00</time>
      </trkpt>
      <trkpt lat="44.49053" lon="4.09959">
        <ele>620</ele>
        <time>2020-02-05T10:20:22+01:00</time>
      </trkpt>
      <trkpt lat="44.49066" lon="4.09977">
        <ele>630</ele>
        <time>2020-02-05T10:20:27+01:00</time>
      </trkpt>
      <trkpt lat="44.49107" lon="4.09969">
        <ele>627</ele>
        <time>2020-02-05T10:20:32+01:00</time>
      </trkpt>
      <trkpt lat="44.49143" lon="4.09962">
        <ele>624</ele>
        <time>2020-02-05T10:20:37+01:00</time>
      </trkpt>
      <trkpt lat="44.49179" lon="4.09961">
        <ele>626</ele>
        <time>2020-02-05T10:20:42+01:00</time>
      </trkpt>
      <trkpt lat="44.49207" lon="4.09948">
        <ele>627</ele>
        <time>2020-02-05T10:20:47+01:00</time>
      </trkpt>
      <trkpt lat="44.49236" lon="4.09943">
        <ele>632</ele>
        <time>2020-02-05T10:20:52+01:00</time>
      </trkpt>
      <trkpt lat="44.49237" lon="4.09931">
        <ele>630</ele>
        <time>2020-02-05T10:20:57+01:00</time>
      </trkpt>
      <trkpt lat="44.49223" lon="4.09895">
        <ele>625</ele>
        <time>2020-02-05T10:21:02+01:00</time>
      </trkpt>
      <trkpt lat="44.49213" lon="4.09853">
        <ele>621</ele>
        <time>2020-02-05T10:21:07+01:00</time>
      </trkpt>
      <trkpt lat="44.49196" lon="4.09815">
        <ele>613</ele>
        <time>2020-02-05T10:21:12+01:00</time>
      </trkpt>
      <trkpt lat="44.49172" lon="4.09765">
        <ele>605</ele>
        <time>2020-02-05T10:21:17+01:00</time>
      </trkpt>
      <trkpt lat="44.49154" lon="4.09721">
        <ele>595</ele>
        <time>2020-02-05T10:21:22+01:00</time>
      </trkpt>
      <trkpt lat="44.49155" lon="4.09704">
        <ele>595</ele>
        <time>2020-02-05T10:21:27+01:00</time>
      </trkpt>
      <trkpt lat="44.49172" lon="4.0968">
        <ele>600</ele>
        <time>2020-02-05T10:21:32+01:00</time>
      </trkpt>
      <trkpt lat="44.49208" lon="4.09639">
        <ele>605</ele>
        <time>2020-02-05T10:21:37+01:00</time>
      </trkpt>
      <trkpt lat="44.49243" lon="4.09597">
        <ele>607</ele>
        <time>2020-02-05T10:21:42+01:00</time>
      </trkpt>
      <trkpt lat="44.49283" lon="4.09546">
        <ele>602</ele>
        <time>2020-02-05T10:21:47+01:00</time>
      </trkpt>
      <trkpt lat="44.4931" lon="4.09514">
        <ele>598</ele>
        <time>2020-02-05T10:21:52+01:00</time>
      </trkpt>
      <trkpt lat="44.4933" lon="4.09504">
        <ele>599</ele>
        <time>2020-02-05T10:21:57+01:00</time>
      </trkpt>
      <trkpt lat="44.49358" lon="4.09518">
        <ele>608</ele>
        <time>2020-02-05T10:22:02+01:00</time>
      </trkpt>
      <trkpt lat="44.49378" lon="4.09514">
        <ele>607</ele>
        <time>2020-02-05T10:22:07+01:00</time>
      </trkpt>
      <trkpt lat="44.49401" lon="4.09514">
        <ele>609</ele>
        <time>2020-02-05T10:22:12+01:00</time>
      </trkpt>
      <trkpt lat="44.4944" lon="4.09491">
        <ele>606</ele>
        <time>2020-02-05T10:22:17+01:00</time>
      </trkpt>
      <trkpt lat="44.49472" lon="4.09464">
        <ele>606</ele>
        <time>2020-02-05T10:22:22+01:00</time>
      </trkpt>
      <trkpt lat="44.49498" lon="4.09419">
        <ele>599</ele>
        <time>2020-02-05T10:22:27+01:00</time>
      </trkpt>
      <trkpt lat="44.49515" lon="4.09378">
        <ele>597</ele>
        <time>2020-02-05T10:22:32+01:00</time>
      </trkpt>
      <trkpt lat="44.49525" lon="4.09365">
        <ele>597</ele>
        <time>2020-02-05T10:22:37+01:00</time>
      </trkpt>
      <trkpt lat="44.49545" lon="4.09357">
        <ele>602</ele>
        <time>2020-02-05T10:22:42+01:00</time>
      </trkpt>
      <trkpt lat="44.49553" lon="4.0935">
        <ele>602</ele>
        <time>2020-02-05T10:22:47+01:00</time>
      </trkpt>
      <trkpt lat="44.49557" lon="4.09338">
        <ele>602</ele>
        <time>2020-02-05T10:22:52+01:00</time>
      </trkpt>
      <trkpt lat="44.49577" lon="4.0929">
        <ele>606</ele>
        <time>2020-02-05T10:22:57+01:00</time>
      </trkpt>
      <trkpt lat="44.49613" lon="4.09263">
        <ele>611</ele>
        <time>2020-02-05T10:23:02+01:00</time>
      </trkpt>
      <trkpt lat="44.49616" lon="4.09243">
        <ele>612</ele>
        <time>2020-02-05T10:23:07+01:00</time>
      </trkpt>
      <trkpt lat="44.496" lon="4.09236">
        <ele>612</ele>
        <time>2020-02-05T10:23:12+01:00</time>
      </trkpt>
      <trkpt lat="44.49487" lon="4.09211">
        <ele>616</ele>
        <time>2020-02-05T10:23:17+01:00</time>
      </trkpt>
      <trkpt lat="44.49474" lon="4.09203">
        <ele>617</ele>
        <time>2020-02-05T10:23:22+01:00</time>
      </trkpt>
      <trkpt lat="44.4946" lon="4.09153">
        <ele>630</ele>
        <time>2020-02-05T10:23:27+01:00</time>
      </trkpt>
      <trkpt lat="44.49454" lon="4.09126">
        <ele>636</ele>
        <time>2020-02-05T10:23:32+01:00</time>
      </trkpt>
      <trkpt lat="44.49447" lon="4.091">
        <ele>642</ele>
        <time>2020-02-05T10:23:37+01:00</time>
      </trkpt>
      <trkpt lat="44.49438" lon="4.09088">
        <ele>643</ele>
        <time>2020-02-05T10:23:42+01:00</time>
      </trkpt>
      <trkpt lat="44.4943" lon="4.09073">
        <ele>645</ele>
        <time>2020-02-05T10:23:47+01:00</time>
      </trkpt>
      <trkpt lat="44.49417" lon="4.09032">
        <ele>649</ele>
        <time>2020-02-05T10:23:52+01:00</time>
      </trkpt>
      <trkpt lat="44.49393" lon="4.0899">
        <ele>650</ele>
        <time>2020-02-05T10:23:57+01:00</time>
      </trkpt>
      <trkpt lat="44.49366" lon="4.08958">
        <ele>647</ele>
        <time>2020-02-05T10:24:02+01:00</time>
      </trkpt>
      <trkpt lat="44.49342" lon="4.0893">
        <ele>642</ele>
        <time>2020-02-05T10:24:07+01:00</time>
      </trkpt>
      <trkpt lat="44.49317" lon="4.08882">
        <ele>637</ele>
        <time>2020-02-05T10:24:12+01:00</time>
      </trkpt>
      <trkpt lat="44.49302" lon="4.08823">
        <ele>636</ele>
        <time>2020-02-05T10:24:17+01:00</time>
      </trkpt>
      <trkpt lat="44.49285" lon="4.08861">
        <ele>623</ele>
        <time>2020-02-05T10:24:22+01:00</time>
      </trkpt>
      <trkpt lat="44.49258" lon="4.08818">
        <ele>611</ele>
        <time>2020-02-05T10:24:27+01:00</time>
      </trkpt>
      <trkpt lat="44.49249" lon="4.08779">
        <ele>609</ele>
        <time>2020-02-05T10:24:32+01:00</time>
      </trkpt>
      <trkpt lat="44.49233" lon="4.08737">
        <ele>617</ele>
        <time>2020-02-05T10:24:37+01:00</time>
      </trkpt>
      <trkpt lat="44.49225" lon="4.0872">
        <ele>621</ele>
        <time>2020-02-05T10:24:42+01:00</time>
      </trkpt>
      <trkpt lat="44.49218" lon="4.08707">
        <ele>626</ele>
        <time>2020-02-05T10:24:47+01:00</time>
      </trkpt>
      <trkpt lat="44.49212" lon="4.08719">
        <ele>625</ele>
        <time>2020-02-05T10:24:52+01:00</time>
      </trkpt>
      <trkpt lat="44.49192" lon="4.08785">
        <ele>619</ele>
        <time>2020-02-05T10:24:57+01:00</time>
      </trkpt>
      <trkpt lat="44.49174" lon="4.08839">
        <ele>611</ele>
        <time>2020-02-05T10:25:02+01:00</time>
      </trkpt>
      <trkpt lat="44.49174" lon="4.08923">
        <ele>600</ele>
        <time>2020-02-05T10:25:07+01:00</time>
      </trkpt>
      <trkpt lat="44.49157" lon="4.08973">
        <ele>596</ele>
        <time>2020-02-05T10:25:12+01:00</time>
      </trkpt>
      <trkpt lat="44.4914" lon="4.09007">
        <ele>600</ele>
        <time>2020-02-05T10:25:17+01:00</time>
      </trkpt>
      <trkpt lat="44.49112" lon="4.09063">
        <ele>601</ele>
        <time>2020-02-05T10:25:22+01:00</time>
      </trkpt>
      <trkpt lat="44.4909" lon="4.09125">
        <ele>592</ele>
        <time>2020-02-05T10:25:27+01:00</time>
      </trkpt>
      <trkpt lat="44.49079" lon="4.09155">
        <ele>586</ele>
        <time>2020-02-05T10:25:32+01:00</time>
      </trkpt>
      <trkpt lat="44.49066" lon="4.09183">
        <ele>579</ele>
        <time>2020-02-05T10:25:37+01:00</time>
      </trkpt>
      <trkpt lat="44.49021" lon="4.09198">
        <ele>582</ele>
        <time>2020-02-05T10:25:42+01:00</time>
      </trkpt>
      <trkpt lat="44.48997" lon="4.09198">
        <ele>586</ele>
        <time>2020-02-05T10:25:47+01:00</time>
      </trkpt>
      <trkpt lat="44.48974" lon="4.09203">
        <ele>581</ele>
        <time>2020-02-05T10:25:52+01:00</time>
      </trkpt>
      <trkpt lat="44.4896" lon="4.09207">
        <ele>579</ele>
        <time>2020-02-05T10:25:57+01:00</time>
      </trkpt>
      <trkpt lat="44.48952" lon="4.09205">
        <ele>578</ele>
        <time>2020-02-05T10:26:02+01:00</time>
      </trkpt>
      <trkpt lat="44.48946" lon="4.09211">
        <ele>576</ele>
        <time>2020-02-05T10:26:07+01:00</time>
      </trkpt>
      <trkpt lat="44.48933" lon="4.09187">
        <ele>583</ele>
        <time>2020-02-05T10:26:12+01:00</time>
      </trkpt>
      <trkpt lat="44.48919" lon="4.09198">
        <ele>578</ele>
        <time>2020-02-05T10:26:17+01:00</time>
      </trkpt>
      <trkpt lat="44.48899" lon="4.09202">
        <ele>574</ele>
        <time>2020-02-05T10:26:22+01:00</time>
      </trkpt>
      <trkpt lat="44.48881" lon="4.09196">
        <ele>574</ele>
        <time>2020-02-05T10:26:27+01:00</time>
      </trkpt>
      <trkpt lat="44.48858" lon="4.09205">
        <ele>568</ele>
        <time>2020-02-05T10:26:32+01:00</time>
      </trkpt>
      <trkpt lat="44.48826" lon="4.09209">
        <ele>563</ele>
        <time>2020-02-05T10:26:37+01:00</time>
      </trkpt>
      <trkpt lat="44.48804" lon="4.09204">
        <ele>559</ele>
        <time>2020-02-05T10:26:42+01:00</time>
      </trkpt>
      <trkpt lat="44.48786" lon="4.09189">
        <ele>558</ele>
        <time>2020-02-05T10:26:47+01:00</time>
      </trkpt>
      <trkpt lat="44.48775" lon="4.09172">
        <ele>559</ele>
        <time>2020-02-05T10:26:52+01:00</time>
      </trkpt>
      <trkpt lat="44.48762" lon="4.09159">
        <ele>558</ele>
        <time>2020-02-05T10:26:57+01:00</time>
      </trkpt>
      <trkpt lat="44.48768" lon="4.09175">
        <ele>556</ele>
        <time>2020-02-05T10:27:02+01:00</time>
      </trkpt>
      <trkpt lat="44.48772" lon="4.09193">
        <ele>553</ele>
        <time>2020-02-05T10:27:07+01:00</time>
      </trkpt>
      <trkpt lat="44.48791" lon="4.09224">
        <ele>550</ele>
        <time>2020-02-05T10:27:12+01:00</time>
      </trkpt>
      <trkpt lat="44.48797" lon="4.09246">
        <ele>545</ele>
        <time>2020-02-05T10:27:17+01:00</time>
      </trkpt>
      <trkpt lat="44.48797" lon="4.09251">
        <ele>543</ele>
        <time>2020-02-05T10:27:22+01:00</time>
      </trkpt>
      <trkpt lat="44.48813" lon="4.0926">
        <ele>544</ele>
        <time>2020-02-05T10:27:27+01:00</time>
      </trkpt>
      <trkpt lat="44.48825" lon="4.09271">
        <ele>543</ele>
        <time>2020-02-05T10:27:32+01:00</time>
      </trkpt>
      <trkpt lat="44.4885" lon="4.09294">
        <ele>540</ele>
        <time>2020-02-05T10:27:37+01:00</time>
      </trkpt>
      <trkpt lat="44.48763" lon="4.09288">
        <ele>527</ele>
        <time>2020-02-05T10:27:42+01:00</time>
      </trkpt>
      <trkpt lat="44.48733" lon="4.09293">
        <ele>519</ele>
        <time>2020-02-05T10:27:47+01:00</time>
      </trkpt>
      <trkpt lat="44.48702" lon="4.09291">
        <ele>513</ele>
        <time>2020-02-05T10:27:52+01:00</time>
      </trkpt>
      <trkpt lat="44.48696" lon="4.09309">
        <ele>507</ele>
        <time>2020-02-05T10:27:57+01:00</time>
      </trkpt>
      <trkpt lat="44.48732" lon="4.09331">
        <ele>509</ele>
        <time>2020-02-05T10:28:02+01:00</time>
      </trkpt>
      <trkpt lat="44.48791" lon="4.09367">
        <ele>508</ele>
        <time>2020-02-05T10:28:07+01:00</time>
      </trkpt>
      <trkpt lat="44.48796" lon="4.09376">
        <ele>506</ele>
        <time>2020-02-05T10:28:12+01:00</time>
      </trkpt>
      <trkpt lat="44.48794" lon="4.0939">
        <ele>501</ele>
        <time>2020-02-05T10:28:17+01:00</time>
      </trkpt>
      <trkpt lat="44.48713" lon="4.09389">
        <ele>487</ele>
        <time>2020-02-05T10:28:22+01:00</time>
      </trkpt>
      <trkpt lat="44.48687" lon="4.09393">
        <ele>481</ele>
        <time>2020-02-05T10:28:27+01:00</time>
      </trkpt>
      <trkpt lat="44.48674" lon="4.0941">
        <ele>473</ele>
        <time>2020-02-05T10:28:32+01:00</time>
      </trkpt>
      <trkpt lat="44.48694" lon="4.09414">
        <ele>475</ele>
        <time>2020-02-05T10:28:37+01:00</time>
      </trkpt>
      <trkpt lat="44.48714" lon="4.09412">
        <ele>479</ele>
        <time>2020-02-05T10:28:42+01:00</time>
      </trkpt>
      <trkpt lat="44.48731" lon="4.09426">
        <ele>479</ele>
        <time>2020-02-05T10:28:47+01:00</time>
      </trkpt>
      <trkpt lat="44.48746" lon="4.09427">
        <ele>481</ele>
        <time>2020-02-05T10:28:52+01:00</time>
      </trkpt>
      <trkpt lat="44.4877" lon="4.0942">
        <ele>487</ele>
        <time>2020-02-05T10:28:57+01:00</time>
      </trkpt>
      <trkpt lat="44.48794" lon="4.09425">
        <ele>490</ele>
        <time>2020-02-05T10:29:02+01:00</time>
      </trkpt>
      <trkpt lat="44.48812" lon="4.0944">
        <ele>488</ele>
        <time>2020-02-05T10:29:07+01:00</time>
      </trkpt>
      <trkpt lat="44.48825" lon="4.09458">
        <ele>484</ele>
        <time>2020-02-05T10:29:12+01:00</time>
      </trkpt>
      <trkpt lat="44.48856" lon="4.09484">
        <ele>478</ele>
        <time>2020-02-05T10:29:17+01:00</time>
      </trkpt>
      <trkpt lat="44.48875" lon="4.09475">
        <ele>482</ele>
        <time>2020-02-05T10:29:22+01:00</time>
      </trkpt>
      <trkpt lat="44.48902" lon="4.09462">
        <ele>487</ele>
        <time>2020-02-05T10:29:27+01:00</time>
      </trkpt>
      <trkpt lat="44.48927" lon="4.09477">
        <ele>484</ele>
        <time>2020-02-05T10:29:32+01:00</time>
      </trkpt>
      <trkpt lat="44.48925" lon="4.09501">
        <ele>476</ele>
        <time>2020-02-05T10:29:37+01:00</time>
      </trkpt>
      <trkpt lat="44.48913" lon="4.09532">
        <ele>478</ele>
        <time>2020-02-05T10:29:42+01:00</time>
      </trkpt>
      <trkpt lat="44.48898" lon="4.09554">
        <ele>480</ele>
        <time>2020-02-05T10:29:47+01:00</time>
      </trkpt>
      <trkpt lat="44.48863" lon="4.09584">
        <ele>482</ele>
        <time>2020-02-05T10:29:52+01:00</time>
      </trkpt>
      <trkpt lat="44.48827" lon="4.09584">
        <ele>482</ele>
        <time>2020-02-05T10:29:57+01:00</time>
      </trkpt>
      <trkpt lat="44.48785" lon="4.09556">
        <ele>480</ele>
        <time>2020-02-05T10:30:02+01:00</time>
      </trkpt>
      <trkpt lat="44.48755" lon="4.09569">
        <ele>484</ele>
        <time>2020-02-05T10:30:07+01:00</time>
      </trkpt>
      <trkpt lat="44.48713" lon="4.09576">
        <ele>483</ele>
        <time>2020-02-05T10:30:12+01:00</time>
      </trkpt>
      <trkpt lat="44.48661" lon="4.09573">
        <ele>476</ele>
        <time>2020-02-05T10:30:17+01:00</time>
      </trkpt>
      <trkpt lat="44.48625" lon="4.09614">
        <ele>474</ele>
        <time>2020-02-05T10:30:22+01:00</time>
      </trkpt>
      <trkpt lat="44.48595" lon="4.09661">
        <ele>473</ele>
        <time>2020-02-05T10:30:27+01:00</time>
      </trkpt>
      <trkpt lat="44.48566" lon="4.09679">
        <ele>466</ele>
        <time>2020-02-05T10:30:32+01:00</time>
      </trkpt>
      <trkpt lat="44.48559" lon="4.09666">
        <ele>461</ele>
        <time>2020-02-05T10:30:37+01:00</time>
      </trkpt>
      <trkpt lat="44.48589" lon="4.0964">
        <ele>466</ele>
        <time>2020-02-05T10:30:42+01:00</time>
      </trkpt>
      <trkpt lat="44.48598" lon="4.09616">
        <ele>464</ele>
        <time>2020-02-05T10:30:47+01:00</time>
      </trkpt>
      <trkpt lat="44.48587" lon="4.0961">
        <ele>459</ele>
        <time>2020-02-05T10:30:52+01:00</time>
      </trkpt>
      <trkpt lat="44.48575" lon="4.09633">
        <ele>460</ele>
        <time>2020-02-05T10:30:57+01:00</time>
      </trkpt>
      <trkpt lat="44.48549" lon="4.09646">
        <ele>454</ele>
        <time>2020-02-05T10:31:02+01:00</time>
      </trkpt>
      <trkpt lat="44.48567" lon="4.09595">
        <ele>450</ele>
        <time>2020-02-05T10:31:07+01:00</time>
      </trkpt>
      <trkpt lat="44.48567" lon="4.09566">
        <ele>447</ele>
        <time>2020-02-05T10:31:12+01:00</time>
      </trkpt>
      <trkpt lat="44.48561" lon="4.09541">
        <ele>444</ele>
        <time>2020-02-05T10:31:17+01:00</time>
      </trkpt>
      <trkpt lat="44.48555" lon="4.09528">
        <ele>443</ele>
        <time>2020-02-05T10:31:22+01:00</time>
      </trkpt>
      <trkpt lat="44.48548" lon="4.09514">
        <ele>442</ele>
        <time>2020-02-05T10:31:27+01:00</time>
      </trkpt>
      <trkpt lat="44.48544" lon="4.09492">
        <ele>443</ele>
        <time>2020-02-05T10:31:32+01:00</time>
      </trkpt>
      <trkpt lat="44.48553" lon="4.09462">
        <ele>447</ele>
        <time>2020-02-05T10:31:37+01:00</time>
      </trkpt>
      <trkpt lat="44.48543" lon="4.09421">
        <ele>456</ele>
        <time>2020-02-05T10:31:42+01:00</time>
      </trkpt>
      <trkpt lat="44.48518" lon="4.09434">
        <ele>458</ele>
        <time>2020-02-05T10:31:47+01:00</time>
      </trkpt>
      <trkpt lat="44.48491" lon="4.09466">
        <ele>453</ele>
        <time>2020-02-05T10:31:52+01:00</time>
      </trkpt>
      <trkpt lat="44.48468" lon="4.09492">
        <ele>450</ele>
        <time>2020-02-05T10:31:57+01:00</time>
      </trkpt>
      <trkpt lat="44.48429" lon="4.09492">
        <ele>458</ele>
        <time>2020-02-05T10:32:02+01:00</time>
      </trkpt>
      <trkpt lat="44.48376" lon="4.09561">
        <ele>456</ele>
        <time>2020-02-05T10:32:07+01:00</time>
      </trkpt>
      <trkpt lat="44.48322" lon="4.09631">
        <ele>458</ele>
        <time>2020-02-05T10:32:12+01:00</time>
      </trkpt>
      <trkpt lat="44.48307" lon="4.09659">
        <ele>454</ele>
        <time>2020-02-05T10:32:17+01:00</time>
      </trkpt>
      <trkpt lat="44.48331" lon="4.09576">
        <ele>466</ele>
        <time>2020-02-05T10:32:22+01:00</time>
      </trkpt>
      <trkpt lat="44.48342" lon="4.09496">
        <ele>480</ele>
        <time>2020-02-05T10:32:27+01:00</time>
      </trkpt>
      <trkpt lat="44.48321" lon="4.09561">
        <ele>471</ele>
        <time>2020-02-05T10:32:32+01:00</time>
      </trkpt>
      <trkpt lat="44.48299" lon="4.09608">
        <ele>465</ele>
        <time>2020-02-05T10:32:37+01:00</time>
      </trkpt>
      <trkpt lat="44.4828" lon="4.09609">
        <ele>467</ele>
        <time>2020-02-05T10:32:42+01:00</time>
      </trkpt>
      <trkpt lat="44.48261" lon="4.09603">
        <ele>470</ele>
        <time>2020-02-05T10:32:47+01:00</time>
      </trkpt>
      <trkpt lat="44.48244" lon="4.09594">
        <ele>473</ele>
        <time>2020-02-05T10:32:52+01:00</time>
      </trkpt>
      <trkpt lat="44.4823" lon="4.09576">
        <ele>476</ele>
        <time>2020-02-05T10:32:57+01:00</time>
      </trkpt>
      <trkpt lat="44.4822" lon="4.09577">
        <ele>473</ele>
        <time>2020-02-05T10:33:02+01:00</time>
      </trkpt>
      <trkpt lat="44.48217" lon="4.09564">
        <ele>477</ele>
        <time>2020-02-05T10:33:07+01:00</time>
      </trkpt>
      <trkpt lat="44.48209" lon="4.09557">
        <ele>478</ele>
        <time>2020-02-05T10:33:12+01:00</time>
      </trkpt>
      <trkpt lat="44.48203" lon="4.09556">
        <ele>477</ele>
        <time>2020-02-05T10:33:17+01:00</time>
      </trkpt>
      <trkpt lat="44.48191" lon="4.09555">
        <ele>476</ele>
        <time>2020-02-05T10:33:22+01:00</time>
      </trkpt>
      <trkpt lat="44.4818" lon="4.09561">
        <ele>472</ele>
        <time>2020-02-05T10:33:27+01:00</time>
      </trkpt>
      <trkpt lat="44.48169" lon="4.09561">
        <ele>470</ele>
        <time>2020-02-05T10:33:32+01:00</time>
      </trkpt>
      <trkpt lat="44.48157" lon="4.09554">
        <ele>472</ele>
        <time>2020-02-05T10:33:37+01:00</time>
      </trkpt>
      <trkpt lat="44.48151" lon="4.09552">
        <ele>473</ele>
        <time>2020-02-05T10:33:42+01:00</time>
      </trkpt>
      <trkpt lat="44.48142" lon="4.09561">
        <ele>470</ele>
        <time>2020-02-05T10:33:47+01:00</time>
      </trkpt>
      <trkpt lat="44.48123" lon="4.09563">
        <ele>469</ele>
        <time>2020-02-05T10:33:52+01:00</time>
      </trkpt>
      <trkpt lat="44.48099" lon="4.09563">
        <ele>469</ele>
        <time>2020-02-05T10:33:57+01:00</time>
      </trkpt>
      <trkpt lat="44.48091" lon="4.09558">
        <ele>471</ele>
        <time>2020-02-05T10:34:02+01:00</time>
      </trkpt>
      <trkpt lat="44.48084" lon="4.09567">
        <ele>467</ele>
        <time>2020-02-05T10:34:07+01:00</time>
      </trkpt>
      <trkpt lat="44.48072" lon="4.09549">
        <ele>476</ele>
        <time>2020-02-05T10:34:12+01:00</time>
      </trkpt>
      <trkpt lat="44.48062" lon="4.09548">
        <ele>478</ele>
        <time>2020-02-05T10:34:17+01:00</time>
      </trkpt>
      <trkpt lat="44.48044" lon="4.09545">
        <ele>481</ele>
        <time>2020-02-05T10:34:22+01:00</time>
      </trkpt>
      <trkpt lat="44.48035" lon="4.0955">
        <ele>481</ele>
        <time>2020-02-05T10:34:27+01:00</time>
      </trkpt>
      <trkpt lat="44.48031" lon="4.09558">
        <ele>479</ele>
        <time>2020-02-05T10:34:32+01:00</time>
      </trkpt>
      <trkpt lat="44.48024" lon="4.09558">
        <ele>480</ele>
        <time>2020-02-05T10:34:37+01:00</time>
      </trkpt>
      <trkpt lat="44.48009" lon="4.09555">
        <ele>483</ele>
        <time>2020-02-05T10:34:42+01:00</time>
      </trkpt>
      <trkpt lat="44.48012" lon="4.09574">
        <ele>480</ele>
        <time>2020-02-05T10:34:47+01:00</time>
      </trkpt>
      <trkpt lat="44.48025" lon="4.09599">
        <ele>476</ele>
        <time>2020-02-05T10:34:52+01:00</time>
      </trkpt>
      <trkpt lat="44.48034" lon="4.09625">
        <ele>473</ele>
        <time>2020-02-05T10:34:57+01:00</time>
      </trkpt>
      <trkpt lat="44.48037" lon="4.09649">
        <ele>472</ele>
        <time>2020-02-05T10:35:02+01:00</time>
      </trkpt>
      <trkpt lat="44.48047" lon="4.09666">
        <ele>467</ele>
        <time>2020-02-05T10:35:07+01:00</time>
      </trkpt>
      <trkpt lat="44.48053" lon="4.09679">
        <ele>465</ele>
        <time>2020-02-05T10:35:12+01:00</time>
      </trkpt>
      <trkpt lat="44.48066" lon="4.09694">
        <ele>460</ele>
        <time>2020-02-05T10:35:17+01:00</time>
      </trkpt>
      <trkpt lat="44.48079" lon="4.09722">
        <ele>456</ele>
        <time>2020-02-05T10:35:22+01:00</time>
      </trkpt>
      <trkpt lat="44.48083" lon="4.09739">
        <ele>456</ele>
        <time>2020-02-05T10:35:27+01:00</time>
      </trkpt>
      <trkpt lat="44.48084" lon="4.0976">
        <ele>457</ele>
        <time>2020-02-05T10:35:32+01:00</time>
      </trkpt>
      <trkpt lat="44.48081" lon="4.09787">
        <ele>458</ele>
        <time>2020-02-05T10:35:37+01:00</time>
      </trkpt>
      <trkpt lat="44.48065" lon="4.09838">
        <ele>467</ele>
        <time>2020-02-05T10:35:42+01:00</time>
      </trkpt>
      <trkpt lat="44.48053" lon="4.09866">
        <ele>468</ele>
        <time>2020-02-05T10:35:47+01:00</time>
      </trkpt>
      <trkpt lat="44.48047" lon="4.09893">
        <ele>467</ele>
        <time>2020-02-05T10:35:52+01:00</time>
      </trkpt>
      <trkpt lat="44.48013" lon="4.09937">
        <ele>474</ele>
        <time>2020-02-05T10:35:57+01:00</time>
      </trkpt>
      <trkpt lat="44.48004" lon="4.09964">
        <ele>472</ele>
        <time>2020-02-05T10:36:02+01:00</time>
      </trkpt>
      <trkpt lat="44.47986" lon="4.09978">
        <ele>472</ele>
        <time>2020-02-05T10:36:07+01:00</time>
      </trkpt>
      <trkpt lat="44.47967" lon="4.09983">
        <ele>474</ele>
        <time>2020-02-05T10:36:12+01:00</time>
      </trkpt>
      <trkpt lat="44.47933" lon="4.09994">
        <ele>476</ele>
        <time>2020-02-05T10:36:17+01:00</time>
      </trkpt>
      <trkpt lat="44.47916" lon="4.09996">
        <ele>478</ele>
        <time>2020-02-05T10:36:22+01:00</time>
      </trkpt>
      <trkpt lat="44.47904" lon="4.09996">
        <ele>479</ele>
        <time>2020-02-05T10:36:27+01:00</time>
      </trkpt>
      <trkpt lat="44.47888" lon="4.0999">
        <ele>482</ele>
        <time>2020-02-05T10:36:32+01:00</time>
      </trkpt>
      <trkpt lat="44.47878" lon="4.09987">
        <ele>484</ele>
        <time>2020-02-05T10:36:37+01:00</time>
      </trkpt>
      <trkpt lat="44.4787" lon="4.09981">
        <ele>487</ele>
        <time>2020-02-05T10:36:42+01:00</time>
      </trkpt>
      <trkpt lat="44.4786" lon="4.09986">
        <ele>486</ele>
        <time>2020-02-05T10:36:47+01:00</time>
      </trkpt>
      <trkpt lat="44.47842" lon="4.10005">
        <ele>482</ele>
        <time>2020-02-05T10:36:52+01:00</time>
      </trkpt>
      <trkpt lat="44.47827" lon="4.10028">
        <ele>481</ele>
        <time>2020-02-05T10:36:57+01:00</time>
      </trkpt>
      <trkpt lat="44.47851" lon="4.10024">
        <ele>477</ele>
        <time>2020-02-05T10:37:02+01:00</time>
      </trkpt>
      <trkpt lat="44.479" lon="4.10055">
        <ele>463</ele>
        <time>2020-02-05T10:37:07+01:00</time>
      </trkpt>
      <trkpt lat="44.47926" lon="4.10073">
        <ele>454</ele>
        <time>2020-02-05T10:37:12+01:00</time>
      </trkpt>
      <trkpt lat="44.4795" lon="4.1009">
        <ele>447</ele>
        <time>2020-02-05T10:37:17+01:00</time>
      </trkpt>
      <trkpt lat="44.47989" lon="4.10088">
        <ele>444</ele>
        <time>2020-02-05T10:37:22+01:00</time>
      </trkpt>
      <trkpt lat="44.47975" lon="4.10137">
        <ele>431</ele>
        <time>2020-02-05T10:37:27+01:00</time>
      </trkpt>
      <trkpt lat="44.47991" lon="4.10134">
        <ele>430</ele>
        <time>2020-02-05T10:37:32+01:00</time>
      </trkpt>
      <trkpt lat="44.48009" lon="4.10117">
        <ele>431</ele>
        <time>2020-02-05T10:37:37+01:00</time>
      </trkpt>
      <trkpt lat="44.48024" lon="4.10097">
        <ele>430</ele>
        <time>2020-02-05T10:37:42+01:00</time>
      </trkpt>
      <trkpt lat="44.48052" lon="4.10054">
        <ele>428</ele>
        <time>2020-02-05T10:37:47+01:00</time>
      </trkpt>
      <trkpt lat="44.48078" lon="4.10017">
        <ele>426</ele>
        <time>2020-02-05T10:37:52+01:00</time>
      </trkpt>
      <trkpt lat="44.48105" lon="4.0999">
        <ele>418</ele>
        <time>2020-02-05T10:37:57+01:00</time>
      </trkpt>
      <trkpt lat="44.48107" lon="4.09996">
        <ele>416</ele>
        <time>2020-02-05T10:38:02+01:00</time>
      </trkpt>
      <trkpt lat="44.48094" lon="4.10041">
        <ele>413</ele>
        <time>2020-02-05T10:38:07+01:00</time>
      </trkpt>
      <trkpt lat="44.48089" lon="4.10058">
        <ele>411</ele>
        <time>2020-02-05T10:38:12+01:00</time>
      </trkpt>
      <trkpt lat="44.48089" lon="4.10067">
        <ele>409</ele>
        <time>2020-02-05T10:38:17+01:00</time>
      </trkpt>
      <trkpt lat="44.48095" lon="4.10067">
        <ele>407</ele>
        <time>2020-02-05T10:38:22+01:00</time>
      </trkpt>
      <trkpt lat="44.48107" lon="4.10048">
        <ele>407</ele>
        <time>2020-02-05T10:38:27+01:00</time>
      </trkpt>
      <trkpt lat="44.4812" lon="4.10033">
        <ele>404</ele>
        <time>2020-02-05T10:38:32+01:00</time>
      </trkpt>
      <trkpt lat="44.48137" lon="4.10021">
        <ele>398</ele>
        <time>2020-02-05T10:38:37+01:00</time>
      </trkpt>
      <trkpt lat="44.48152" lon="4.10007">
        <ele>391</ele>
        <time>2020-02-05T10:38:42+01:00</time>
      </trkpt>
      <trkpt lat="44.48166" lon="4.10011">
        <ele>385</ele>
        <time>2020-02-05T10:38:47+01:00</time>
      </trkpt>
      <trkpt lat="44.48176" lon="4.10019">
        <ele>385</ele>
        <time>2020-02-05T10:38:52+01:00</time>
      </trkpt>
      <trkpt lat="44.4818" lon="4.1003">
        <ele>387</ele>
        <time>2020-02-05T10:38:57+01:00</time>
      </trkpt>
      <trkpt lat="44.48173" lon="4.10049">
        <ele>386</ele>
        <time>2020-02-05T10:39:02+01:00</time>
      </trkpt>
      <trkpt lat="44.48174" lon="4.10079">
        <ele>388</ele>
        <time>2020-02-05T10:39:07+01:00</time>
      </trkpt>
      <trkpt lat="44.48176" lon="4.10128">
        <ele>391</ele>
        <time>2020-02-05T10:39:12+01:00</time>
      </trkpt>
      <trkpt lat="44.48182" lon="4.10134">
        <ele>394</ele>
        <time>2020-02-05T10:39:17+01:00</time>
      </trkpt>
      <trkpt lat="44.48191" lon="4.10116">
        <ele>396</ele>
        <time>2020-02-05T10:39:22+01:00</time>
      </trkpt>
      <trkpt lat="44.48196" lon="4.10109">
        <ele>397</ele>
        <time>2020-02-05T10:39:27+01:00</time>
      </trkpt>
      <trkpt lat="44.48203" lon="4.10112">
        <ele>399</ele>
        <time>2020-02-05T10:39:32+01:00</time>
      </trkpt>
      <trkpt lat="44.48181" lon="4.10225">
        <ele>405</ele>
        <time>2020-02-05T10:39:37+01:00</time>
      </trkpt>
      <trkpt lat="44.4814" lon="4.10266">
        <ele>397</ele>
        <time>2020-02-05T10:39:42+01:00</time>
      </trkpt>
      <trkpt lat="44.48127" lon="4.10283">
        <ele>396</ele>
        <time>2020-02-05T10:39:47+01:00</time>
      </trkpt>
      <trkpt lat="44.48118" lon="4.10301">
        <ele>396</ele>
        <time>2020-02-05T10:39:52+01:00</time>
      </trkpt>
      <trkpt lat="44.48109" lon="4.10318">
        <ele>395</ele>
        <time>2020-02-05T10:39:57+01:00</time>
      </trkpt>
      <trkpt lat="44.48098" lon="4.10333">
        <ele>393</ele>
        <time>2020-02-05T10:40:02+01:00</time>
      </trkpt>
      <trkpt lat="44.48076" lon="4.1034">
        <ele>388</ele>
        <time>2020-02-05T10:40:07+01:00</time>
      </trkpt>
      <trkpt lat="44.48056" lon="4.10351">
        <ele>387</ele>
        <time>2020-02-05T10:40:12+01:00</time>
      </trkpt>
      <trkpt lat="44.4804" lon="4.10354">
        <ele>385</ele>
        <time>2020-02-05T10:40:17+01:00</time>
      </trkpt>
      <trkpt lat="44.48029" lon="4.10362">
        <ele>385</ele>
        <time>2020-02-05T10:40:22+01:00</time>
      </trkpt>
      <trkpt lat="44.48016" lon="4.10376">
        <ele>385</ele>
        <time>2020-02-05T10:40:27+01:00</time>
      </trkpt>
      <trkpt lat="44.48003" lon="4.10385">
        <ele>383</ele>
        <time>2020-02-05T10:40:32+01:00</time>
      </trkpt>
      <trkpt lat="44.47991" lon="4.10402">
        <ele>384</ele>
        <time>2020-02-05T10:40:37+01:00</time>
      </trkpt>
      <trkpt lat="44.47981" lon="4.10417">
        <ele>383</ele>
        <time>2020-02-05T10:40:42+01:00</time>
      </trkpt>
      <trkpt lat="44.4797" lon="4.10427">
        <ele>383</ele>
        <time>2020-02-05T10:40:47+01:00</time>
      </trkpt>
      <trkpt lat="44.47946" lon="4.10452">
        <ele>381</ele>
        <time>2020-02-05T10:40:52+01:00</time>
      </trkpt>
      <trkpt lat="44.4792" lon="4.1047">
        <ele>374</ele>
        <time>2020-02-05T10:40:57+01:00</time>
      </trkpt>
      <trkpt lat="44.47877" lon="4.10504">
        <ele>370</ele>
        <time>2020-02-05T10:41:02+01:00</time>
      </trkpt>
      <trkpt lat="44.47873" lon="4.10532">
        <ele>370</ele>
        <time>2020-02-05T10:41:07+01:00</time>
      </trkpt>
      <trkpt lat="44.47868" lon="4.10552">
        <ele>369</ele>
        <time>2020-02-05T10:41:12+01:00</time>
      </trkpt>
      <trkpt lat="44.47856" lon="4.10549">
        <ele>367</ele>
        <time>2020-02-05T10:41:17+01:00</time>
      </trkpt>
      <trkpt lat="44.47846" lon="4.10555">
        <ele>365</ele>
        <time>2020-02-05T10:41:22+01:00</time>
      </trkpt>
      <trkpt lat="44.47833" lon="4.10556">
        <ele>362</ele>
        <time>2020-02-05T10:41:27+01:00</time>
      </trkpt>
      <trkpt lat="44.47822" lon="4.1056">
        <ele>363</ele>
        <time>2020-02-05T10:41:32+01:00</time>
      </trkpt>
      <trkpt lat="44.47799" lon="4.10617">
        <ele>367</ele>
        <time>2020-02-05T10:41:37+01:00</time>
      </trkpt>
      <trkpt lat="44.47782" lon="4.10667">
        <ele>372</ele>
        <time>2020-02-05T10:41:42+01:00</time>
      </trkpt>
      <trkpt lat="44.47793" lon="4.10663">
        <ele>374</ele>
        <time>2020-02-05T10:41:47+01:00</time>
      </trkpt>
      <trkpt lat="44.47807" lon="4.10648">
        <ele>375</ele>
        <time>2020-02-05T10:41:52+01:00</time>
      </trkpt>
      <trkpt lat="44.4782" lon="4.10628">
        <ele>373</ele>
        <time>2020-02-05T10:41:57+01:00</time>
      </trkpt>
      <trkpt lat="44.47821" lon="4.10639">
        <ele>376</ele>
        <time>2020-02-05T10:42:02+01:00</time>
      </trkpt>
      <trkpt lat="44.47816" lon="4.10653">
        <ele>378</ele>
        <time>2020-02-05T10:42:07+01:00</time>
      </trkpt>
      <trkpt lat="44.47814" lon="4.10681">
        <ele>384</ele>
        <time>2020-02-05T10:42:12+01:00</time>
      </trkpt>
      <trkpt lat="44.47833" lon="4.10664">
        <ele>385</ele>
        <time>2020-02-05T10:42:17+01:00</time>
      </trkpt>
      <trkpt lat="44.4785" lon="4.10649">
        <ele>381</ele>
        <time>2020-02-05T10:42:22+01:00</time>
      </trkpt>
      <trkpt lat="44.47857" lon="4.10659">
        <ele>383</ele>
        <time>2020-02-05T10:42:27+01:00</time>
      </trkpt>
      <trkpt lat="44.47849" lon="4.10669">
        <ele>385</ele>
        <time>2020-02-05T10:42:32+01:00</time>
      </trkpt>
      <trkpt lat="44.47849" lon="4.10682">
        <ele>389</ele>
        <time>2020-02-05T10:42:37+01:00</time>
      </trkpt>
      <trkpt lat="44.4786" lon="4.10684">
        <ele>389</ele>
        <time>2020-02-05T10:42:42+01:00</time>
      </trkpt>
      <trkpt lat="44.47889" lon="4.10714">
        <ele>397</ele>
        <time>2020-02-05T10:42:47+01:00</time>
      </trkpt>
      <trkpt lat="44.47905" lon="4.10734">
        <ele>403</ele>
        <time>2020-02-05T10:42:52+01:00</time>
      </trkpt>
      <trkpt lat="44.47918" lon="4.10749">
        <ele>407</ele>
        <time>2020-02-05T10:42:57+01:00</time>
      </trkpt>
      <trkpt lat="44.47942" lon="4.10754">
        <ele>406</ele>
        <time>2020-02-05T10:43:02+01:00</time>
      </trkpt>
      <trkpt lat="44.47953" lon="4.10769">
        <ele>409</ele>
        <time>2020-02-05T10:43:07+01:00</time>
      </trkpt>
      <trkpt lat="44.4796" lon="4.10787">
        <ele>414</ele>
        <time>2020-02-05T10:43:12+01:00</time>
      </trkpt>
      <trkpt lat="44.47964" lon="4.10811">
        <ele>420</ele>
        <time>2020-02-05T10:43:17+01:00</time>
      </trkpt>
      <trkpt lat="44.47872" lon="4.10786">
        <ele>419</ele>
        <time>2020-02-05T10:43:22+01:00</time>
      </trkpt>
      <trkpt lat="44.47861" lon="4.10794">
        <ele>422</ele>
        <time>2020-02-05T10:43:27+01:00</time>
      </trkpt>
      <trkpt lat="44.47873" lon="4.10805">
        <ele>425</ele>
        <time>2020-02-05T10:43:32+01:00</time>
      </trkpt>
      <trkpt lat="44.47883" lon="4.10807">
        <ele>426</ele>
        <time>2020-02-05T10:43:37+01:00</time>
      </trkpt>
      <trkpt lat="44.47884" lon="4.10816">
        <ele>429</ele>
        <time>2020-02-05T10:43:42+01:00</time>
      </trkpt>
      <trkpt lat="44.4787" lon="4.10813">
        <ele>427</ele>
        <time>2020-02-05T10:43:47+01:00</time>
      </trkpt>
      <trkpt lat="44.4786" lon="4.10814">
        <ele>428</ele>
        <time>2020-02-05T10:43:52+01:00</time>
      </trkpt>
      <trkpt lat="44.47869" lon="4.10831">
        <ele>433</ele>
        <time>2020-02-05T10:43:57+01:00</time>
      </trkpt>
      <trkpt lat="44.47893" lon="4.10852">
        <ele>439</ele>
        <time>2020-02-05T10:44:02+01:00</time>
      </trkpt>
      <trkpt lat="44.47926" lon="4.10883">
        <ele>450</ele>
        <time>2020-02-05T10:44:07+01:00</time>
      </trkpt>
      <trkpt lat="44.47955" lon="4.10914">
        <ele>458</ele>
        <time>2020-02-05T10:44:12+01:00</time>
      </trkpt>
      <trkpt lat="44.48013" lon="4.10966">
        <ele>464</ele>
        <time>2020-02-05T10:44:17+01:00</time>
      </trkpt>
      <trkpt lat="44.47996" lon="4.1098">
        <ele>466</ele>
        <time>2020-02-05T10:44:22+01:00</time>
      </trkpt>
      <trkpt lat="44.47985" lon="4.10998">
        <ele>467</ele>
        <time>2020-02-05T10:44:27+01:00</time>
      </trkpt>
      <trkpt lat="44.47986" lon="4.11016">
        <ele>467</ele>
        <time>2020-02-05T10:44:32+01:00</time>
      </trkpt>
      <trkpt lat="44.47991" lon="4.11026">
        <ele>468</ele>
        <time>2020-02-05T10:44:37+01:00</time>
      </trkpt>
      <trkpt lat="44.47993" lon="4.11038">
        <ele>468</ele>
        <time>2020-02-05T10:44:42+01:00</time>
      </trkpt>
      <trkpt lat="44.47998" lon="4.11079">
        <ele>468</ele>
        <time>2020-02-05T10:44:47+01:00</time>
      </trkpt>
      <trkpt lat="44.48022" lon="4.1114">
        <ele>476</ele>
        <time>2020-02-05T10:44:52+01:00</time>
      </trkpt>
      <trkpt lat="44.48023" lon="4.11179">
        <ele>478</ele>
        <time>2020-02-05T10:44:57+01:00</time>
      </trkpt>
      <trkpt lat="44.48017" lon="4.11199">
        <ele>478</ele>
        <time>2020-02-05T10:45:02+01:00</time>
      </trkpt>
      <trkpt lat="44.47993" lon="4.11249">
        <ele>473</ele>
        <time>2020-02-05T10:45:07+01:00</time>
      </trkpt>
      <trkpt lat="44.47986" lon="4.11265">
        <ele>475</ele>
        <time>2020-02-05T10:45:12+01:00</time>
      </trkpt>
      <trkpt lat="44.47955" lon="4.11289">
        <ele>470</ele>
        <time>2020-02-05T10:45:17+01:00</time>
      </trkpt>
      <trkpt lat="44.4794" lon="4.11307">
        <ele>470</ele>
        <time>2020-02-05T10:45:22+01:00</time>
      </trkpt>
      <trkpt lat="44.47921" lon="4.11316">
        <ele>465</ele>
        <time>2020-02-05T10:45:27+01:00</time>
      </trkpt>
      <trkpt lat="44.47882" lon="4.11345">
        <ele>462</ele>
        <time>2020-02-05T10:45:32+01:00</time>
      </trkpt>
      <trkpt lat="44.47843" lon="4.11406">
        <ele>467</ele>
        <time>2020-02-05T10:45:37+01:00</time>
      </trkpt>
      <trkpt lat="44.47803" lon="4.11441">
        <ele>460</ele>
        <time>2020-02-05T10:45:42+01:00</time>
      </trkpt>
      <trkpt lat="44.47783" lon="4.11458">
        <ele>456</ele>
        <time>2020-02-05T10:45:47+01:00</time>
      </trkpt>
      <trkpt lat="44.47767" lon="4.11479">
        <ele>453</ele>
        <time>2020-02-05T10:45:52+01:00</time>
      </trkpt>
      <trkpt lat="44.4777" lon="4.11488">
        <ele>455</ele>
        <time>2020-02-05T10:45:57+01:00</time>
      </trkpt>
      <trkpt lat="44.47753" lon="4.11501">
        <ele>449</ele>
        <time>2020-02-05T10:46:02+01:00</time>
      </trkpt>
      <trkpt lat="44.4774" lon="4.11515">
        <ele>442</ele>
        <time>2020-02-05T10:46:07+01:00</time>
      </trkpt>
      <trkpt lat="44.47733" lon="4.11543">
        <ele>437</ele>
        <time>2020-02-05T10:46:12+01:00</time>
      </trkpt>
      <trkpt lat="44.47731" lon="4.11561">
        <ele>435</ele>
        <time>2020-02-05T10:46:17+01:00</time>
      </trkpt>
      <trkpt lat="44.47732" lon="4.11574">
        <ele>434</ele>
        <time>2020-02-05T10:46:22+01:00</time>
      </trkpt>
      <trkpt lat="44.47732" lon="4.11593">
        <ele>435</ele>
        <time>2020-02-05T10:46:27+01:00</time>
      </trkpt>
      <trkpt lat="44.47736" lon="4.11611">
        <ele>439</ele>
        <time>2020-02-05T10:46:32+01:00</time>
      </trkpt>
      <trkpt lat="44.47732" lon="4.11623">
        <ele>438</ele>
        <time>2020-02-05T10:46:37+01:00</time>
      </trkpt>
      <trkpt lat="44.47706" lon="4.11644">
        <ele>432</ele>
        <time>2020-02-05T10:46:42+01:00</time>
      </trkpt>
      <trkpt lat="44.477" lon="4.11661">
        <ele>433</ele>
        <time>2020-02-05T10:46:47+01:00</time>
      </trkpt>
      <trkpt lat="44.47695" lon="4.11684">
        <ele>438</ele>
        <time>2020-02-05T10:46:52+01:00</time>
      </trkpt>
      <trkpt lat="44.47689" lon="4.11697">
        <ele>441</ele>
        <time>2020-02-05T10:46:57+01:00</time>
      </trkpt>
      <trkpt lat="44.47678" lon="4.11701">
        <ele>440</ele>
        <time>2020-02-05T10:47:02+01:00</time>
      </trkpt>
      <trkpt lat="44.47657" lon="4.11693">
        <ele>436</ele>
        <time>2020-02-05T10:47:07+01:00</time>
      </trkpt>
      <trkpt lat="44.47638" lon="4.11681">
        <ele>437</ele>
        <time>2020-02-05T10:47:12+01:00</time>
      </trkpt>
      <trkpt lat="44.47614" lon="4.11652">
        <ele>434</ele>
        <time>2020-02-05T10:47:17+01:00</time>
      </trkpt>
      <trkpt lat="44.4759" lon="4.11616">
        <ele>425</ele>
        <time>2020-02-05T10:47:22+01:00</time>
      </trkpt>
      <trkpt lat="44.4757" lon="4.11604">
        <ele>422</ele>
        <time>2020-02-05T10:47:27+01:00</time>
      </trkpt>
      <trkpt lat="44.47548" lon="4.11601">
        <ele>423</ele>
        <time>2020-02-05T10:47:32+01:00</time>
      </trkpt>
      <trkpt lat="44.47513" lon="4.11608">
        <ele>428</ele>
        <time>2020-02-05T10:47:37+01:00</time>
      </trkpt>
      <trkpt lat="44.47479" lon="4.1162">
        <ele>435</ele>
        <time>2020-02-05T10:47:42+01:00</time>
      </trkpt>
      <trkpt lat="44.47459" lon="4.11624">
        <ele>437</ele>
        <time>2020-02-05T10:47:47+01:00</time>
      </trkpt>
      <trkpt lat="44.47446" lon="4.11612">
        <ele>432</ele>
        <time>2020-02-05T10:47:52+01:00</time>
      </trkpt>
      <trkpt lat="44.4743" lon="4.11603">
        <ele>430</ele>
        <time>2020-02-05T10:47:57+01:00</time>
      </trkpt>
      <trkpt lat="44.47408" lon="4.11593">
        <ele>425</ele>
        <time>2020-02-05T10:48:02+01:00</time>
      </trkpt>
      <trkpt lat="44.47384" lon="4.11591">
        <ele>423</ele>
        <time>2020-02-05T10:48:07+01:00</time>
      </trkpt>
      <trkpt lat="44.47368" lon="4.11597">
        <ele>424</ele>
        <time>2020-02-05T10:48:12+01:00</time>
      </trkpt>
      <trkpt lat="44.47356" lon="4.11599">
        <ele>424</ele>
        <time>2020-02-05T10:48:17+01:00</time>
      </trkpt>
      <trkpt lat="44.47341" lon="4.11618">
        <ele>428</ele>
        <time>2020-02-05T10:48:22+01:00</time>
      </trkpt>
      <trkpt lat="44.47332" lon="4.1164">
        <ele>434</ele>
        <time>2020-02-05T10:48:27+01:00</time>
      </trkpt>
      <trkpt lat="44.47321" lon="4.11682">
        <ele>438</ele>
        <time>2020-02-05T10:48:32+01:00</time>
      </trkpt>
      <trkpt lat="44.47315" lon="4.11728">
        <ele>441</ele>
        <time>2020-02-05T10:48:37+01:00</time>
      </trkpt>
      <trkpt lat="44.47313" lon="4.11768">
        <ele>446</ele>
        <time>2020-02-05T10:48:42+01:00</time>
      </trkpt>
      <trkpt lat="44.47313" lon="4.11808">
        <ele>451</ele>
        <time>2020-02-05T10:48:47+01:00</time>
      </trkpt>
      <trkpt lat="44.4729" lon="4.11822">
        <ele>444</ele>
        <time>2020-02-05T10:48:52+01:00</time>
      </trkpt>
      <trkpt lat="44.47274" lon="4.11825">
        <ele>439</ele>
        <time>2020-02-05T10:48:57+01:00</time>
      </trkpt>
      <trkpt lat="44.47261" lon="4.1182">
        <ele>433</ele>
        <time>2020-02-05T10:49:02+01:00</time>
      </trkpt>
      <trkpt lat="44.47218" lon="4.11795">
        <ele>423</ele>
        <time>2020-02-05T10:49:07+01:00</time>
      </trkpt>
      <trkpt lat="44.47194" lon="4.11785">
        <ele>418</ele>
        <time>2020-02-05T10:49:12+01:00</time>
      </trkpt>
      <trkpt lat="44.47175" lon="4.11779">
        <ele>416</ele>
        <time>2020-02-05T10:49:17+01:00</time>
      </trkpt>
      <trkpt lat="44.47153" lon="4.11778">
        <ele>416</ele>
        <time>2020-02-05T10:49:22+01:00</time>
      </trkpt>
      <trkpt lat="44.47127" lon="4.11784">
        <ele>421</ele>
        <time>2020-02-05T10:49:27+01:00</time>
      </trkpt>
      <trkpt lat="44.47105" lon="4.11794">
        <ele>428</ele>
        <time>2020-02-05T10:49:32+01:00</time>
      </trkpt>
      <trkpt lat="44.47088" lon="4.11788">
        <ele>427</ele>
        <time>2020-02-05T10:49:37+01:00</time>
      </trkpt>
      <trkpt lat="44.47047" lon="4.11765">
        <ele>424</ele>
        <time>2020-02-05T10:49:42+01:00</time>
      </trkpt>
      <trkpt lat="44.47018" lon="4.11768">
        <ele>431</ele>
        <time>2020-02-05T10:49:47+01:00</time>
      </trkpt>
      <trkpt lat="44.46994" lon="4.11778">
        <ele>437</ele>
        <time>2020-02-05T10:49:52+01:00</time>
      </trkpt>
      <trkpt lat="44.46981" lon="4.11779">
        <ele>434</ele>
        <time>2020-02-05T10:49:57+01:00</time>
      </trkpt>
      <trkpt lat="44.46971" lon="4.11786">
        <ele>434</ele>
        <time>2020-02-05T10:50:02+01:00</time>
      </trkpt>
      <trkpt lat="44.46954" lon="4.11818">
        <ele>441</ele>
        <time>2020-02-05T10:50:07+01:00</time>
      </trkpt>
      <trkpt lat="44.46935" lon="4.11848">
        <ele>448</ele>
        <time>2020-02-05T10:50:12+01:00</time>
      </trkpt>
      <trkpt lat="44.46913" lon="4.11865">
        <ele>451</ele>
        <time>2020-02-05T10:50:17+01:00</time>
      </trkpt>
      <trkpt lat="44.46892" lon="4.11872">
        <ele>451</ele>
        <time>2020-02-05T10:50:22+01:00</time>
      </trkpt>
      <trkpt lat="44.46872" lon="4.11878">
        <ele>452</ele>
        <time>2020-02-05T10:50:27+01:00</time>
      </trkpt>
      <trkpt lat="44.46845" lon="4.11889">
        <ele>453</ele>
        <time>2020-02-05T10:50:32+01:00</time>
      </trkpt>
      <trkpt lat="44.46826" lon="4.11901">
        <ele>454</ele>
        <time>2020-02-05T10:50:37+01:00</time>
      </trkpt>
      <trkpt lat="44.46827" lon="4.11939">
        <ele>463</ele>
        <time>2020-02-05T10:50:42+01:00</time>
      </trkpt>
      <trkpt lat="44.46815" lon="4.11933">
        <ele>459</ele>
        <time>2020-02-05T10:50:47+01:00</time>
      </trkpt>
      <trkpt lat="44.46799" lon="4.11935">
        <ele>455</ele>
        <time>2020-02-05T10:50:52+01:00</time>
      </trkpt>
      <trkpt lat="44.4678" lon="4.11944">
        <ele>450</ele>
        <time>2020-02-05T10:50:57+01:00</time>
      </trkpt>
      <trkpt lat="44.46763" lon="4.11982">
        <ele>450</ele>
        <time>2020-02-05T10:51:02+01:00</time>
      </trkpt>
      <trkpt lat="44.46758" lon="4.12007">
        <ele>451</ele>
        <time>2020-02-05T10:51:07+01:00</time>
      </trkpt>
      <trkpt lat="44.46752" lon="4.12038">
        <ele>449</ele>
        <time>2020-02-05T10:51:12+01:00</time>
      </trkpt>
      <trkpt lat="44.4675" lon="4.1206">
        <ele>449</ele>
        <time>2020-02-05T10:51:17+01:00</time>
      </trkpt>
      <trkpt lat="44.4675" lon="4.1209">
        <ele>448</ele>
        <time>2020-02-05T10:51:22+01:00</time>
      </trkpt>
      <trkpt lat="44.46755" lon="4.1211">
        <ele>447</ele>
        <time>2020-02-05T10:51:27+01:00</time>
      </trkpt>
      <trkpt lat="44.46774" lon="4.12148">
        <ele>448</ele>
        <time>2020-02-05T10:51:32+01:00</time>
      </trkpt>
      <trkpt lat="44.46788" lon="4.12197">
        <ele>444</ele>
        <time>2020-02-05T10:51:37+01:00</time>
      </trkpt>
      <trkpt lat="44.46795" lon="4.1224">
        <ele>439</ele>
        <time>2020-02-05T10:51:42+01:00</time>
      </trkpt>
      <trkpt lat="44.46808" lon="4.12282">
        <ele>436</ele>
        <time>2020-02-05T10:51:47+01:00</time>
      </trkpt>
      <trkpt lat="44.46828" lon="4.12329">
        <ele>434</ele>
        <time>2020-02-05T10:51:52+01:00</time>
      </trkpt>
      <trkpt lat="44.46852" lon="4.12374">
        <ele>436</ele>
        <time>2020-02-05T10:51:57+01:00</time>
      </trkpt>
      <trkpt lat="44.4686" lon="4.12388">
        <ele>437</ele>
        <time>2020-02-05T10:52:02+01:00</time>
      </trkpt>
      <trkpt lat="44.46874" lon="4.12414">
        <ele>437</ele>
        <time>2020-02-05T10:52:07+01:00</time>
      </trkpt>
      <trkpt lat="44.46902" lon="4.12437">
        <ele>439</ele>
        <time>2020-02-05T10:52:12+01:00</time>
      </trkpt>
      <trkpt lat="44.46935" lon="4.12464">
        <ele>444</ele>
        <time>2020-02-05T10:52:17+01:00</time>
      </trkpt>
      <trkpt lat="44.46952" lon="4.12513">
        <ele>439</ele>
        <time>2020-02-05T10:52:22+01:00</time>
      </trkpt>
      <trkpt lat="44.46966" lon="4.12547">
        <ele>438</ele>
        <time>2020-02-05T10:52:27+01:00</time>
      </trkpt>
      <trkpt lat="44.46981" lon="4.12543">
        <ele>443</ele>
        <time>2020-02-05T10:52:32+01:00</time>
      </trkpt>
      <trkpt lat="44.46995" lon="4.12545">
        <ele>447</ele>
        <time>2020-02-05T10:52:37+01:00</time>
      </trkpt>
      <trkpt lat="44.47007" lon="4.12558">
        <ele>450</ele>
        <time>2020-02-05T10:52:42+01:00</time>
      </trkpt>
      <trkpt lat="44.47018" lon="4.12568">
        <ele>453</ele>
        <time>2020-02-05T10:52:47+01:00</time>
      </trkpt>
      <trkpt lat="44.47029" lon="4.12607">
        <ele>452</ele>
        <time>2020-02-05T10:52:52+01:00</time>
      </trkpt>
      <trkpt lat="44.47036" lon="4.12652">
        <ele>448</ele>
        <time>2020-02-05T10:52:57+01:00</time>
      </trkpt>
      <trkpt lat="44.47059" lon="4.12684">
        <ele>452</ele>
        <time>2020-02-05T10:53:02+01:00</time>
      </trkpt>
      <trkpt lat="44.47083" lon="4.12708">
        <ele>456</ele>
        <time>2020-02-05T10:53:07+01:00</time>
      </trkpt>
      <trkpt lat="44.47095" lon="4.12741">
        <ele>457</ele>
        <time>2020-02-05T10:53:12+01:00</time>
      </trkpt>
      <trkpt lat="44.47103" lon="4.12784">
        <ele>456</ele>
        <time>2020-02-05T10:53:17+01:00</time>
      </trkpt>
      <trkpt lat="44.47094" lon="4.12829">
        <ele>454</ele>
        <time>2020-02-05T10:53:22+01:00</time>
      </trkpt>
      <trkpt lat="44.4709" lon="4.12877">
        <ele>455</ele>
        <time>2020-02-05T10:53:27+01:00</time>
      </trkpt>
      <trkpt lat="44.47065" lon="4.1296">
        <ele>451</ele>
        <time>2020-02-05T10:53:32+01:00</time>
      </trkpt>
    </trkseg>
  </trk>
</gpx>